sensor_id;sensor_type;location;lat;lon;timestamp;pressure;altitude;pressure_sealevel;temperature;humidity
7660;BME280;3872;47.902;8.162;2023-04-01T00:01:44;90781.31;;;8.54;100.00
7660;BME280;3872;47.902;8.162;2023-04-01T00:04:10;90781.47;;;7.22;100.00
7660;BME280;3872;47.902;8.162;2023-04-01T00:06:37;90773.47;;;7.98;100.00
7660;BME280;3872;47.902;8.162;2023-04-01T00:09:06;90777.69;;;7.68;100.00
7660;BME280;3872;47.902;8.162;2023-04-01T00:11:33;90769.56;;;7.38;100.00
7660;BME280;3872;47.902;8.162;2023-04-01T00:14:01;90771.56;;;8.29;100.00
7660;BME280;3872;47.902;8.162;2023-04-01T00:16:27;90769.94;;;8.59;100.00
7660;BME280;3872;47.902;8.162;2023-04-01T00:18:54;90771.53;;;8.20;100.00
7660;BME280;3872;47.902;8.162;2023-04-01T00:21:21;90776.97;;;8.24;100.00
7660;BME280;3872;47.902;8.162;2023-04-01T00:23:48;90784.47;;;7.69;100.00
7660;BME280;3872;47.902;8.162;2023-04-01T00:26:15;90789.22;;;8.06;100.00
7660;BME280;3872;47.902;8.162;2023-04-01T00:28:44;90784.22;;;6.50;100.00
7660;BME280;3872;47.902;8.162;2023-04-01T00:31:12;90785.88;;;7.35;100.00
7660;BME280;3872;47.902;8.162;2023-04-01T00:33:40;90785.47;;;7.20;100.00
7660;BME280;3872;47.902;8.162;2023-04-01T00:36:08;90791.78;;;7.50;100.00
7660;BME280;3872;47.902;8.162;2023-04-01T00:38:35;90773.59;;;7.84;100.00
7660;BME280;3872;47.902;8.162;2023-04-01T00:41:02;90775.38;;;8.14;100.00
7660;BME280;3872;47.902;8.162;2023-04-01T00:43:30;90772.63;;;8.28;100.00
7660;BME280;3872;47.902;8.162;2023-04-01T00:45:57;90771.53;;;8.20;100.00
7660;BME280;3872;47.902;8.162;2023-04-01T00:48:28;90759.88;;;8.35;100.00
7660;BME280;3872;47.902;8.162;2023-04-01T00:50:59;90761.84;;;7.33;100.00
7660;BME280;3872;47.902;8.162;2023-04-01T00:53:28;90761.22;;;8.24;100.00
7660;BME280;3872;47.902;8.162;2023-04-01T00:55:58;90750.53;;;8.03;100.00
7660;BME280;3872;47.902;8.162;2023-04-01T00:58:27;90756.53;;;7.25;100.00
7660;BME280;3872;47.902;8.162;2023-04-01T01:00:56;90767.34;;;7.63;100.00
7660;BME280;3872;47.902;8.162;2023-04-01T01:03:26;90772.53;;;7.85;100.00
7660;BME280;3872;47.902;8.162;2023-04-01T01:06:10;90765.09;;;7.39;100.00
7660;BME280;3872;47.902;8.162;2023-04-01T01:08:56;90763.91;;;7.45;100.00
7660;BME280;3872;47.902;8.162;2023-04-01T01:11:33;90757.56;;;7.77;100.00
7660;BME280;3872;47.902;8.162;2023-04-01T01:14:08;90747.03;;;8.16;100.00
7660;BME280;3872;47.902;8.162;2023-04-01T01:16:42;90747.44;;;7.44;100.00
7660;BME280;3872;47.902;8.162;2023-04-01T01:19:25;90743.31;;;8.09;100.00
7660;BME280;3872;47.902;8.162;2023-04-01T01:22:10;90742.25;;;7.62;100.00
7660;BME280;3872;47.902;8.162;2023-04-01T01:24:57;90730.53;;;8.24;100.00
7660;BME280;3872;47.902;8.162;2023-04-01T01:27:34;90719.16;;;7.64;100.00
7660;BME280;3872;47.902;8.162;2023-04-01T01:30:25;90735.94;;;7.63;100.00
7660;BME280;3872;47.902;8.162;2023-04-01T01:33:21;90738.38;;;7.51;100.00
7660;BME280;3872;47.902;8.162;2023-04-01T01:35:53;90731.25;;;7.42;100.00
7660;BME280;3872;47.902;8.162;2023-04-01T01:38:23;90730.06;;;8.14;100.00
7660;BME280;3872;47.902;8.162;2023-04-01T01:41:04;90732.53;;;8.02;100.00
7660;BME280;3872;47.902;8.162;2023-04-01T01:43:33;90730.28;;;8.43;100.00
7660;BME280;3872;47.902;8.162;2023-04-01T01:46:05;90755.78;;;8.03;100.00
7660;BME280;3872;47.902;8.162;2023-04-01T01:48:34;90741.63;;;8.21;100.00
7660;BME280;3872;47.902;8.162;2023-04-01T01:51:05;90743.41;;;7.38;100.00
7660;BME280;3872;47.902;8.162;2023-04-01T01:53:32;90752.00;;;7.78;100.00
7660;BME280;3872;47.902;8.162;2023-04-01T01:55:59;90750.88;;;7.23;100.00
7660;BME280;3872;47.902;8.162;2023-04-01T01:58:29;90739.91;;;7.52;100.00
7660;BME280;3872;47.902;8.162;2023-04-01T02:00:59;90745.31;;;7.55;100.00
7660;BME280;3872;47.902;8.162;2023-04-01T02:03:30;90745.69;;;7.31;100.00
7660;BME280;3872;47.902;8.162;2023-04-01T02:05:59;90747.94;;;8.12;100.00
7660;BME280;3872;47.902;8.162;2023-04-01T02:08:32;90746.50;;;7.89;100.00
7660;BME280;3872;47.902;8.162;2023-04-01T02:11:02;90755.47;;;7.57;100.00
7660;BME280;3872;47.902;8.162;2023-04-01T02:13:38;90746.34;;;7.45;100.00
7660;BME280;3872;47.902;8.162;2023-04-01T02:16:11;90756.09;;;8.02;100.00
7660;BME280;3872;47.902;8.162;2023-04-01T02:18:41;90748.38;;;8.05;100.00
7660;BME280;3872;47.902;8.162;2023-04-01T02:21:10;90744.47;;;8.51;100.00
7660;BME280;3872;47.902;8.162;2023-04-01T02:23:40;90756.41;;;8.00;100.00
7660;BME280;3872;47.902;8.162;2023-04-01T02:26:08;90755.47;;;7.26;100.00
7660;BME280;3872;47.902;8.162;2023-04-01T02:28:38;90764.53;;;7.81;100.00
7660;BME280;3872;47.902;8.162;2023-04-01T02:31:06;90753.91;;;7.86;100.00
7660;BME280;3872;47.902;8.162;2023-04-01T02:33:34;90751.69;;;7.71;100.00
7660;BME280;3872;47.902;8.162;2023-04-01T02:36:03;90747.69;;;8.39;100.00
7660;BME280;3872;47.902;8.162;2023-04-01T02:38:31;90747.25;;;7.41;100.00
7660;BME280;3872;47.902;8.162;2023-04-01T02:41:00;90734.41;;;8.27;100.00
7660;BME280;3872;47.902;8.162;2023-04-01T02:43:28;90737.72;;;7.45;100.00
7660;BME280;3872;47.902;8.162;2023-04-01T02:45:55;90742.78;;;8.63;100.00
7660;BME280;3872;47.902;8.162;2023-04-01T02:48:22;90741.47;;;7.22;100.00
7660;BME280;3872;47.902;8.162;2023-04-01T02:50:49;90738.72;;;8.23;100.00
7660;BME280;3872;47.902;8.162;2023-04-01T02:53:16;90736.53;;;8.25;100.00
7660;BME280;3872;47.902;8.162;2023-04-01T02:55:43;90742.47;;;8.31;100.00
7660;BME280;3872;47.902;8.162;2023-04-01T02:58:11;90739.50;;;8.32;100.00
7660;BME280;3872;47.902;8.162;2023-04-01T03:00:38;90726.13;;;8.42;100.00
7660;BME280;3872;47.902;8.162;2023-04-01T03:03:04;90731.03;;;7.70;100.00
7660;BME280;3872;47.902;8.162;2023-04-01T03:05:31;90739.94;;;8.17;100.00
7660;BME280;3872;47.902;8.162;2023-04-01T03:07:57;90737.69;;;7.84;100.00
7660;BME280;3872;47.902;8.162;2023-04-01T03:10:24;90731.94;;;7.26;100.00
7660;BME280;3872;47.902;8.162;2023-04-01T03:12:50;90738.16;;;7.78;100.00
7660;BME280;3872;47.902;8.162;2023-04-01T03:15:18;90747.81;;;7.29;100.00
7660;BME280;3872;47.902;8.162;2023-04-01T03:17:45;90748.19;;;7.84;100.00
7660;BME280;3872;47.902;8.162;2023-04-01T03:20:12;90739.75;;;8.05;100.00
7660;BME280;3872;47.902;8.162;2023-04-01T03:22:40;90734.38;;;8.01;100.00
7660;BME280;3872;47.902;8.162;2023-04-01T03:25:07;90740.69;;;7.61;100.00
7660;BME280;3872;47.902;8.162;2023-04-01T03:27:34;90749.94;;;7.27;100.00
7660;BME280;3872;47.902;8.162;2023-04-01T03:30:01;90747.59;;;7.96;100.00
7660;BME280;3872;47.902;8.162;2023-04-01T03:32:30;90743.41;;;7.86;100.00
7660;BME280;3872;47.902;8.162;2023-04-01T03:34:56;90745.34;;;8.29;100.00
7660;BME280;3872;47.902;8.162;2023-04-01T03:37:24;90752.72;;;7.62;100.00
7660;BME280;3872;47.902;8.162;2023-04-01T03:39:50;90759.16;;;7.95;100.00
7660;BME280;3872;47.902;8.162;2023-04-01T03:42:17;90760.50;;;7.44;100.00
7660;BME280;3872;47.902;8.162;2023-04-01T03:44:44;90748.19;;;7.45;100.00
7660;BME280;3872;47.902;8.162;2023-04-01T03:47:11;90749.75;;;7.94;100.00
7660;BME280;3872;47.902;8.162;2023-04-01T03:49:39;90744.97;;;7.96;100.00
7660;BME280;3872;47.902;8.162;2023-04-01T03:52:09;90740.16;;;6.80;100.00
7660;BME280;3872;47.902;8.162;2023-04-01T03:54:35;90755.25;;;7.84;100.00
7660;BME280;3872;47.902;8.162;2023-04-01T03:57:02;90755.81;;;7.64;100.00
7660;BME280;3872;47.902;8.162;2023-04-01T03:59:29;90750.13;;;6.78;100.00
7660;BME280;3872;47.902;8.162;2023-04-01T04:01:55;90748.34;;;7.48;100.00
7660;BME280;3872;47.902;8.162;2023-04-01T04:04:22;90742.22;;;8.01;100.00
7660;BME280;3872;47.902;8.162;2023-04-01T04:06:50;90739.75;;;7.17;100.00
7660;BME280;3872;47.902;8.162;2023-04-01T04:09:18;90740.50;;;7.97;100.00
7660;BME280;3872;47.902;8.162;2023-04-01T04:11:45;90735.19;;;7.71;100.00
7660;BME280;3872;47.902;8.162;2023-04-01T04:14:11;90740.06;;;6.93;100.00
7660;BME280;3872;47.902;8.162;2023-04-01T04:16:38;90736.53;;;7.20;100.00
7660;BME280;3872;47.902;8.162;2023-04-01T04:19:05;90742.50;;;7.91;100.00
7660;BME280;3872;47.902;8.162;2023-04-01T04:21:32;90737.44;;;8.03;100.00
7660;BME280;3872;47.902;8.162;2023-04-01T04:24:01;90740.25;;;8.15;100.00
7660;BME280;3872;47.902;8.162;2023-04-01T04:26:40;90736.19;;;7.92;100.00
7660;BME280;3872;47.902;8.162;2023-04-01T04:29:07;90730.69;;;8.19;100.00
7660;BME280;3872;47.902;8.162;2023-04-01T04:31:33;90731.66;;;7.67;100.00
7660;BME280;3872;47.902;8.162;2023-04-01T04:34:00;90734.50;;;6.64;100.00
7660;BME280;3872;47.902;8.162;2023-04-01T04:36:27;90735.75;;;7.20;100.00
7660;BME280;3872;47.902;8.162;2023-04-01T04:38:54;90742.47;;;7.12;100.00
7660;BME280;3872;47.902;8.162;2023-04-01T04:41:22;90744.00;;;7.35;100.00
7660;BME280;3872;47.902;8.162;2023-04-01T04:43:51;90740.03;;;7.46;100.00
7660;BME280;3872;47.902;8.162;2023-04-01T04:46:19;90731.38;;;7.77;100.00
7660;BME280;3872;47.902;8.162;2023-04-01T04:48:48;90727.97;;;7.76;100.00
7660;BME280;3872;47.902;8.162;2023-04-01T04:51:16;90735.47;;;8.09;100.00
7660;BME280;3872;47.902;8.162;2023-04-01T04:53:43;90727.94;;;7.28;100.00
7660;BME280;3872;47.902;8.162;2023-04-01T04:56:11;90730.69;;;7.63;100.00
7660;BME280;3872;47.902;8.162;2023-04-01T04:58:46;90733.25;;;7.85;100.00
7660;BME280;3872;47.902;8.162;2023-04-01T05:01:18;90735.13;;;6.47;100.00
7660;BME280;3872;47.902;8.162;2023-04-01T05:03:45;90732.47;;;7.36;100.00
7660;BME280;3872;47.902;8.162;2023-04-01T05:06:13;90735.19;;;7.71;100.00
7660;BME280;3872;47.902;8.162;2023-04-01T05:08:41;90736.16;;;7.83;100.00
7660;BME280;3872;47.902;8.162;2023-04-01T05:11:10;90727.72;;;7.47;100.00
7660;BME280;3872;47.902;8.162;2023-04-01T05:13:38;90727.41;;;7.18;100.00
7660;BME280;3872;47.902;8.162;2023-04-01T05:16:09;90715.41;;;8.13;100.00
7660;BME280;3872;47.902;8.162;2023-04-01T05:18:36;90724.50;;;8.07;100.00
7660;BME280;3872;47.902;8.162;2023-04-01T05:21:07;90744.34;;;7.42;100.00
7660;BME280;3872;47.902;8.162;2023-04-01T05:23:34;90737.28;;;6.90;100.00
7660;BME280;3872;47.902;8.162;2023-04-01T05:26:03;90726.09;;;7.68;100.00
7660;BME280;3872;47.902;8.162;2023-04-01T05:28:30;90723.03;;;6.96;100.00
7660;BME280;3872;47.902;8.162;2023-04-01T05:30:58;90726.94;;;8.03;100.00
7660;BME280;3872;47.902;8.162;2023-04-01T05:33:31;90728.53;;;7.25;100.00
7660;BME280;3872;47.902;8.162;2023-04-01T05:36:06;90731.44;;;7.55;100.00
7660;BME280;3872;47.902;8.162;2023-04-01T05:38:32;90724.72;;;8.36;100.00
7660;BME280;3872;47.902;8.162;2023-04-01T05:41:00;90723.59;;;8.03;100.00
7660;BME280;3872;47.902;8.162;2023-04-01T05:43:28;90732.88;;;7.30;100.00
7660;BME280;3872;47.902;8.162;2023-04-01T05:45:58;90726.72;;;8.39;100.00
7660;BME280;3872;47.902;8.162;2023-04-01T05:48:39;90749.31;;;7.53;100.00
7660;BME280;3872;47.902;8.162;2023-04-01T05:51:06;90734.09;;;7.63;100.00
7660;BME280;3872;47.902;8.162;2023-04-01T05:53:33;90747.25;;;7.41;100.00
7660;BME280;3872;47.902;8.162;2023-04-01T05:56:02;90736.31;;;8.52;100.00
7660;BME280;3872;47.902;8.162;2023-04-01T05:58:33;90747.94;;;8.12;100.00
7660;BME280;3872;47.902;8.162;2023-04-01T06:01:02;90739.38;;;8.72;100.00
7660;BME280;3872;47.902;8.162;2023-04-01T06:03:28;90744.72;;;9.27;100.00
7660;BME280;3872;47.902;8.162;2023-04-01T06:05:57;90734.09;;;9.06;100.00
7660;BME280;3872;47.902;8.162;2023-04-01T06:08:23;90745.41;;;8.55;100.00
7660;BME280;3872;47.902;8.162;2023-04-01T06:10:58;90750.84;;;7.54;100.00
7660;BME280;3872;47.902;8.162;2023-04-01T06:13:44;90744.03;;;8.66;100.00
7660;BME280;3872;47.902;8.162;2023-04-01T06:16:23;90739.38;;;8.80;100.00
7660;BME280;3872;47.902;8.162;2023-04-01T06:22:06;90744.28;;;9.08;100.00
7660;BME280;3872;47.902;8.162;2023-04-01T06:25:01;90738.59;;;8.54;100.00
7660;BME280;3872;47.902;8.162;2023-04-01T06:27:46;90746.91;;;8.99;100.00
7660;BME280;3872;47.902;8.162;2023-04-01T06:30:30;90744.94;;;8.36;100.00
7660;BME280;3872;47.902;8.162;2023-04-01T06:36:25;90742.44;;;8.39;100.00
7660;BME280;3872;47.902;8.162;2023-04-01T06:39:16;90735.66;;;8.47;100.00
7660;BME280;3872;47.902;8.162;2023-04-01T06:42:03;90737.50;;;8.29;100.00
7660;BME280;3872;47.902;8.162;2023-04-01T06:44:42;90733.84;;;8.56;100.00
7660;BME280;3872;47.902;8.162;2023-04-01T06:47:48;90729.97;;;8.71;100.00
7660;BME280;3872;47.902;8.162;2023-04-01T06:50:51;90737.06;;;8.36;100.00
7660;BME280;3872;47.902;8.162;2023-04-01T06:53:44;90741.69;;;7.82;100.00
7660;BME280;3872;47.902;8.162;2023-04-01T06:56:45;90742.88;;;8.24;100.00
7660;BME280;3872;47.902;8.162;2023-04-01T06:59:25;90734.81;;;8.03;100.00
7660;BME280;3872;47.902;8.162;2023-04-01T07:01:55;90733.25;;;7.85;100.00
7660;BME280;3872;47.902;8.162;2023-04-01T07:04:26;90737.78;;;8.27;100.00
7660;BME280;3872;47.902;8.162;2023-04-01T07:06:58;90724.25;;;8.77;100.00
7660;BME280;3872;47.902;8.162;2023-04-01T07:09:31;90731.50;;;8.54;100.00
7660;BME280;3872;47.902;8.162;2023-04-01T07:12:31;90729.09;;;7.93;100.00
7660;BME280;3872;47.902;8.162;2023-04-01T07:15:20;90730.47;;;7.42;100.00
7660;BME280;3872;47.902;8.162;2023-04-01T07:17:52;90739.06;;;7.73;100.00
7660;BME280;3872;47.902;8.162;2023-04-01T07:20:22;90742.53;;;8.08;100.00
7660;BME280;3872;47.902;8.162;2023-04-01T07:22:54;90731.13;;;7.96;100.00
7660;BME280;3872;47.902;8.162;2023-04-01T07:25:43;90732.44;;;7.76;100.00
7660;BME280;3872;47.902;8.162;2023-04-01T07:28:34;90737.50;;;7.64;100.00
7660;BME280;3872;47.902;8.162;2023-04-01T07:31:45;90746.56;;;7.58;100.00
7660;BME280;3872;47.902;8.162;2023-04-01T07:34:19;90748.78;;;7.42;100.00
7660;BME280;3872;47.902;8.162;2023-04-01T07:36:55;90745.25;;;7.86;100.00
7660;BME280;3872;47.902;8.162;2023-04-01T07:39:34;90755.66;;;7.69;100.00
7660;BME280;3872;47.902;8.162;2023-04-01T07:42:17;90744.38;;;7.99;100.00
7660;BME280;3872;47.902;8.162;2023-04-01T07:44:54;90743.81;;;7.01;100.00
7660;BME280;3872;47.902;8.162;2023-04-01T07:47:43;90746.75;;;7.70;100.00
7660;BME280;3872;47.902;8.162;2023-04-01T07:50:19;90746.94;;;8.56;100.00
7660;BME280;3872;47.902;8.162;2023-04-01T07:52:57;90751.19;;;8.09;100.00
7660;BME280;3872;47.902;8.162;2023-04-01T07:55:31;90754.44;;;8.23;100.00
7660;BME280;3872;47.902;8.162;2023-04-01T07:58:04;90753.16;;;6.93;100.00
7660;BME280;3872;47.902;8.162;2023-04-01T08:00:42;90755.13;;;7.19;100.00
7660;BME280;3872;47.902;8.162;2023-04-01T08:03:29;90754.44;;;7.75;100.00
7660;BME280;3872;47.902;8.162;2023-04-01T08:06:00;90753.44;;;7.45;100.00
7660;BME280;3872;47.902;8.162;2023-04-01T08:08:38;90755.41;;;7.08;100.00
7660;BME280;3872;47.902;8.162;2023-04-01T08:11:34;90744.78;;;8.41;100.00
7660;BME280;3872;47.902;8.162;2023-04-01T08:14:30;90748.94;;;8.42;100.00
7660;BME280;3872;47.902;8.162;2023-04-01T08:17:28;90750.63;;;8.89;100.00
7660;BME280;3872;47.902;8.162;2023-04-01T08:20:10;90741.09;;;8.50;100.00
7660;BME280;3872;47.902;8.162;2023-04-01T08:22:42;90749.66;;;8.16;100.00
7660;BME280;3872;47.902;8.162;2023-04-01T08:25:24;90764.16;;;7.66;100.00
7660;BME280;3872;47.902;8.162;2023-04-01T08:27:55;90741.84;;;8.94;100.00
7660;BME280;3872;47.902;8.162;2023-04-01T08:30:25;90765.75;;;7.84;100.00
7660;BME280;3872;47.902;8.162;2023-04-01T08:32:56;90750.91;;;8.27;100.00
7660;BME280;3872;47.902;8.162;2023-04-01T08:35:29;90761.00;;;8.03;100.00
7660;BME280;3872;47.902;8.162;2023-04-01T08:38:01;90755.56;;;8.39;100.00
7660;BME280;3872;47.902;8.162;2023-04-01T08:40:43;90759.38;;;9.28;100.00
7660;BME280;3872;47.902;8.162;2023-04-01T08:43:25;90761.84;;;9.24;100.00
7660;BME280;3872;47.902;8.162;2023-04-01T08:46:09;90766.84;;;8.74;100.00
7660;BME280;3872;47.902;8.162;2023-04-01T08:48:58;90759.88;;;8.61;100.00
7660;BME280;3872;47.902;8.162;2023-04-01T08:51:54;90759.75;;;8.57;100.00
7660;BME280;3872;47.902;8.162;2023-04-01T08:54:46;90763.91;;;8.93;100.00
7660;BME280;3872;47.902;8.162;2023-04-01T08:57:40;90763.59;;;8.69;100.00
7660;BME280;3872;47.902;8.162;2023-04-01T09:00:37;90768.19;;;7.41;100.00
7660;BME280;3872;47.902;8.162;2023-04-01T09:03:29;90763.59;;;8.51;100.00
7660;BME280;3872;47.902;8.162;2023-04-01T09:12:28;90775.16;;;8.68;100.00
7660;BME280;3872;47.902;8.162;2023-04-01T09:15:16;90771.72;;;9.36;100.00
7660;BME280;3872;47.902;8.162;2023-04-01T09:21:08;90776.09;;;8.72;100.00
7660;BME280;3872;47.902;8.162;2023-04-01T09:24:12;90776.84;;;9.15;100.00
7660;BME280;3872;47.902;8.162;2023-04-01T09:26:52;90769.69;;;9.50;100.00
7660;BME280;3872;47.902;8.162;2023-04-01T09:29:37;90782.44;;;8.71;100.00
7660;BME280;3872;47.902;8.162;2023-04-01T09:32:22;90781.94;;;9.12;100.00
7660;BME280;3872;47.902;8.162;2023-04-01T09:35:15;90777.75;;;9.36;100.00
7660;BME280;3872;47.902;8.162;2023-04-01T09:37:53;90786.13;;;9.04;100.00
7660;BME280;3872;47.902;8.162;2023-04-01T09:40:31;90785.63;;;8.33;100.00
7660;BME280;3872;47.902;8.162;2023-04-01T09:43:22;90789.53;;;8.87;100.00
7660;BME280;3872;47.902;8.162;2023-04-01T09:46:11;90790.63;;;8.12;100.00
7660;BME280;3872;47.902;8.162;2023-04-01T09:51:54;90789.53;;;8.79;100.00
7660;BME280;3872;47.902;8.162;2023-04-01T09:54:35;90797.91;;;8.15;100.00
7660;BME280;3872;47.902;8.162;2023-04-01T09:57:50;90788.91;;;8.64;100.00
7660;BME280;3872;47.902;8.162;2023-04-01T10:01:09;90803.09;;;8.89;100.00
7660;BME280;3872;47.902;8.162;2023-04-01T10:04:07;90796.38;;;9.52;100.00
7660;BME280;3872;47.902;8.162;2023-04-01T10:07:17;90798.78;;;8.93;100.00
7660;BME280;3872;47.902;8.162;2023-04-01T10:10:23;90798.00;;;8.84;100.00
7660;BME280;3872;47.902;8.162;2023-04-01T10:13:30;90801.09;;;9.03;100.00
7660;BME280;3872;47.902;8.162;2023-04-01T10:16:24;90802.03;;;9.08;100.00
7660;BME280;3872;47.902;8.162;2023-04-01T10:19:17;90805.81;;;8.33;100.00
7660;BME280;3872;47.902;8.162;2023-04-01T10:22:09;90797.38;;;9.13;100.00
7660;BME280;3872;47.902;8.162;2023-04-01T10:25:05;90798.47;;;8.78;100.00
7660;BME280;3872;47.902;8.162;2023-04-01T10:31:21;90811.31;;;8.22;100.00
7660;BME280;3872;47.902;8.162;2023-04-01T10:34:20;90789.06;;;8.85;100.00
7660;BME280;3872;47.902;8.162;2023-04-01T10:36:56;90801.25;;;8.73;100.00
7660;BME280;3872;47.902;8.162;2023-04-01T10:39:37;90805.38;;;9.51;100.00
7660;BME280;3872;47.902;8.162;2023-04-01T10:42:55;90810.34;;;9.10;100.00
7660;BME280;3872;47.902;8.162;2023-04-01T10:48:59;90807.84;;;8.36;100.00
7660;BME280;3872;47.902;8.162;2023-04-01T10:51:52;90809.38;;;9.40;100.00
7660;BME280;3872;47.902;8.162;2023-04-01T10:54:55;90821.31;;;9.20;100.00
7660;BME280;3872;47.902;8.162;2023-04-01T11:01:33;90812.78;;;9.96;100.00
7660;BME280;3872;47.902;8.162;2023-04-01T11:08:29;90827.31;;;8.69;100.00
7660;BME280;3872;47.902;8.162;2023-04-01T11:11:28;90835.03;;;8.17;100.00
7660;BME280;3872;47.902;8.162;2023-04-01T11:14:29;90830.72;;;8.95;100.00
7660;BME280;3872;47.902;8.162;2023-04-01T11:17:39;90829.97;;;9.29;100.00
7660;BME280;3872;47.902;8.162;2023-04-01T11:20:42;90830.38;;;8.62;100.00
7660;BME280;3872;47.902;8.162;2023-04-01T11:26:26;90836.13;;;8.90;100.00
7660;BME280;3872;47.902;8.162;2023-04-01T11:29:25;90840.28;;;8.74;100.00
7660;BME280;3872;47.902;8.162;2023-04-01T11:32:24;90844.31;;;9.23;100.00
7660;BME280;3872;47.902;8.162;2023-04-01T11:35:08;90845.66;;;8.69;100.00
7660;BME280;3872;47.902;8.162;2023-04-01T11:37:48;90835.88;;;9.81;100.00
7660;BME280;3872;47.902;8.162;2023-04-01T11:40:42;90859.13;;;9.19;100.00
7660;BME280;3872;47.902;8.162;2023-04-01T11:43:45;90859.72;;;8.16;100.00
7660;BME280;3872;47.902;8.162;2023-04-01T11:46:48;90852.69;;;8.34;100.00
7660;BME280;3872;47.902;8.162;2023-04-01T11:49:33;90855.69;;;9.70;100.00
7660;BME280;3872;47.902;8.162;2023-04-01T11:52:32;90866.25;;;9.36;100.00
7660;BME280;3872;47.902;8.162;2023-04-01T11:55:19;90855.38;;;8.60;100.00
7660;BME280;3872;47.902;8.162;2023-04-01T11:58:11;90865.66;;;8.39;100.00
7660;BME280;3872;47.902;8.162;2023-04-01T12:00:59;90866.94;;;8.68;100.00
7660;BME280;3872;47.902;8.162;2023-04-01T12:06:36;90868.53;;;9.12;100.00
7660;BME280;3872;47.902;8.162;2023-04-01T12:09:12;90868.97;;;8.62;100.00
7660;BME280;3872;47.902;8.162;2023-04-01T12:11:49;90870.56;;;9.23;100.00
7660;BME280;3872;47.902;8.162;2023-04-01T12:14:21;90863.75;;;9.31;100.00
7660;BME280;3872;47.902;8.162;2023-04-01T12:16:58;90865.00;;;9.25;100.00
7660;BME280;3872;47.902;8.162;2023-04-01T12:19:37;90863.00;;;9.22;100.00
7660;BME280;3872;47.902;8.162;2023-04-01T12:22:25;90853.81;;;9.71;100.00
7660;BME280;3872;47.902;8.162;2023-04-01T12:25:01;90856.03;;;9.52;100.00
7660;BME280;3872;47.902;8.162;2023-04-01T12:27:39;90849.09;;;10.02;100.00
7660;BME280;3872;47.902;8.162;2023-04-01T12:30:27;90862.84;;;9.35;100.00
7660;BME280;3872;47.902;8.162;2023-04-01T12:33:10;90854.88;;;9.87;100.00
7660;BME280;3872;47.902;8.162;2023-04-01T12:35:52;90867.38;;;8.44;100.00
7660;BME280;3872;47.902;8.162;2023-04-01T12:38:31;90853.25;;;9.48;100.00
7660;BME280;3872;47.902;8.162;2023-04-01T12:41:08;90846.72;;;9.63;100.00
7660;BME280;3872;47.902;8.162;2023-04-01T12:44:01;90852.97;;;9.96;100.00
7660;BME280;3872;47.902;8.162;2023-04-01T12:46:45;90860.97;;;8.84;100.00
7660;BME280;3872;47.902;8.162;2023-04-01T12:49:34;90854.50;;;8.90;100.00
7660;BME280;3872;47.902;8.162;2023-04-01T12:52:07;90851.81;;;9.68;100.00
7660;BME280;3872;47.902;8.162;2023-04-01T12:54:55;90856.50;;;8.93;100.00
7660;BME280;3872;47.902;8.162;2023-04-01T12:57:34;90849.47;;;9.83;100.00
7660;BME280;3872;47.902;8.162;2023-04-01T13:00:24;90836.94;;;10.36;100.00
7660;BME280;3872;47.902;8.162;2023-04-01T13:03:05;90834.34;;;10.27;100.00
7660;BME280;3872;47.902;8.162;2023-04-01T13:08:55;90838.31;;;10.92;100.00
7660;BME280;3872;47.902;8.162;2023-04-01T13:11:34;90830.41;;;10.92;100.00
7660;BME280;3872;47.902;8.162;2023-04-01T13:14:50;90854.41;;;9.94;100.00
7660;BME280;3872;47.902;8.162;2023-04-01T13:17:23;90841.25;;;10.90;100.00
7660;BME280;3872;47.902;8.162;2023-04-01T13:19:56;90850.31;;;10.13;100.00
7660;BME280;3872;47.902;8.162;2023-04-01T13:22:41;90855.25;;;9.34;100.00
7660;BME280;3872;47.902;8.162;2023-04-01T13:25:20;90849.16;;;11.11;100.00
7660;BME280;3872;47.902;8.162;2023-04-01T13:27:56;90853.94;;;10.38;100.00
7660;BME280;3872;47.902;8.162;2023-04-01T13:30:28;90856.06;;;9.98;100.00
7660;BME280;3872;47.902;8.162;2023-04-01T13:33:00;90845.66;;;9.47;100.00
7660;BME280;3872;47.902;8.162;2023-04-01T13:35:36;90875.16;;;8.83;100.00
7660;BME280;3872;47.902;8.162;2023-04-01T13:38:20;90853.84;;;10.17;100.00
7660;BME280;3872;47.902;8.162;2023-04-01T13:40:57;90845.53;;;10.07;100.00
7660;BME280;3872;47.902;8.162;2023-04-01T13:43:31;90847.28;;;10.70;100.00
7660;BME280;3872;47.902;8.162;2023-04-01T13:46:13;90849.34;;;9.71;100.00
7660;BME280;3872;47.902;8.162;2023-04-01T13:49:04;90849.22;;;10.52;100.00
7660;BME280;3872;47.902;8.162;2023-04-01T13:51:52;90843.50;;;10.12;100.00
7660;BME280;3872;47.902;8.162;2023-04-01T13:54:42;90838.78;;;10.35;100.00
7660;BME280;3872;47.902;8.162;2023-04-01T13:57:27;90838.19;;;10.59;100.00
7660;BME280;3872;47.902;8.162;2023-04-01T14:06:13;90820.06;;;11.28;100.00
7660;BME280;3872;47.902;8.162;2023-04-01T14:08:52;90827.50;;;11.80;100.00
7660;BME280;3872;47.902;8.162;2023-04-01T14:11:27;90818.88;;;12.89;98.85
7660;BME280;3872;47.902;8.162;2023-04-01T14:14:03;90828.56;;;11.13;100.00
7660;BME280;3872;47.902;8.162;2023-04-01T14:16:54;90829.56;;;12.20;100.00
7660;BME280;3872;47.902;8.162;2023-04-01T14:19:31;90829.56;;;11.42;99.42
7660;BME280;3872;47.902;8.162;2023-04-01T14:22:13;90826.03;;;12.03;100.00
7660;BME280;3872;47.902;8.162;2023-04-01T14:25:03;90829.69;;;12.84;87.66
7660;BME280;3872;47.902;8.162;2023-04-01T14:27:46;90825.78;;;11.10;100.00
7660;BME280;3872;47.902;8.162;2023-04-01T14:30:35;90825.97;;;12.61;87.86
7660;BME280;3872;47.902;8.162;2023-04-01T14:33:14;90813.44;;;13.10;100.00
7660;BME280;3872;47.902;8.162;2023-04-01T14:35:53;90807.88;;;12.99;82.27
7660;BME280;3872;47.902;8.162;2023-04-01T14:38:36;90817.38;;;12.64;92.96
7660;BME280;3872;47.902;8.162;2023-04-01T14:41:13;90826.97;;;12.56;85.85
7660;BME280;3872;47.902;8.162;2023-04-01T14:44:13;90820.66;;;12.36;90.50
7660;BME280;3872;47.902;8.162;2023-04-01T14:47:22;90820.81;;;11.50;100.00
7660;BME280;3872;47.902;8.162;2023-04-01T14:49:53;90831.31;;;10.96;100.00
7660;BME280;3872;47.902;8.162;2023-04-01T14:52:24;90838.13;;;11.18;100.00
7660;BME280;3872;47.902;8.162;2023-04-01T14:54:54;90856.19;;;10.02;100.00
7660;BME280;3872;47.902;8.162;2023-04-01T14:57:24;90880.69;;;9.94;100.00
7660;BME280;3872;47.902;8.162;2023-04-01T14:59:54;90874.91;;;10.17;100.00
7660;BME280;3872;47.902;8.162;2023-04-01T15:02:40;90887.56;;;9.09;100.00
7660;BME280;3872;47.902;8.162;2023-04-01T15:05:16;90888.94;;;9.23;100.00
7660;BME280;3872;47.902;8.162;2023-04-01T15:08:03;90881.69;;;9.29;100.00